MUGM/NBW METAR and TAF weather

Enter ICAO airport designator
Station Type Date Time Source
MUGM METAR 2021/07/30 06:51 UTC NOAA

MUGM 300651Z 33008KT 10SM FEW025 BKN080 BKN280 27/22 A2999 RMK AO2 SLP155 OCNL LTG DSNT NE CB DSNT NE T02670222 $


Station Type Date Time Source
MUGM Decoded METAR 2021/07/30 06:51 UTC NOAA

GUANTANAMO BAY, CUBA NAVAL, CU, Cuba (MUGM) 19-55N 075-12W 23M
Jul 30, 2021 - 02:51 AM EDT / 2021.07.30 0651 UTC
Wind: from the NNW (330 degrees) at 9 MPH (8 KT):0
Visibility: 10 mile(s):0
Sky conditions: mostly cloudy
Weather: Cumulonimbus clouds, lightning observed
Temperature: 80.1 F (26.7 C)
Dew Point: 72.0 F (22.2 C)
Relative Humidity: 76%
Pressure (altimeter): 29.99 in. Hg (1015 hPa)
ob: MUGM 300651Z 33008KT 10SM FEW025 BKN080 BKN280 27/22 A2999 RMK AO2 SLP155 OCNL LTG DSNT NE CB DSNT NE T02670222
cycle: 7

Station Type Date Time Source
MUGM TAF 2021/07/30 07:18 UTC NOAA

TAF TAF MUGM 3007/3107 01006KT 9999 FEW040 BKN80 QNH2996INS
BECMG 3016/3018 12010KT 9999 VCSH FEW020 BKN280 QNH2998INS
FM302100 VRB06KT 9999 FEW030 FEW280 QNH2995INS T26/3009Z T33/3017Z FN00236

Example: see airport list